createdAt,value
2016-06-09T00:00:21.735Z,14.33
2016-06-09T00:01:21.614Z,14.3
2016-06-09T00:02:21.789Z,14.41
2016-06-09T00:03:21.823Z,14.43
2016-06-09T00:04:21.858Z,14.43
2016-06-09T00:05:21.892Z,14.47
2016-06-09T00:06:21.926Z,14.5
2016-06-09T00:07:21.960Z,14.6
2016-06-09T00:08:22.011Z,14.77
2016-06-09T00:09:21.873Z,14.77
2016-06-09T00:10:22.080Z,14.62
2016-06-09T00:11:22.097Z,14.63
2016-06-09T00:12:22.147Z,14.53
2016-06-09T00:13:22.182Z,14.58
2016-06-09T00:14:22.216Z,14.54
2016-06-09T00:15:22.250Z,14.51
2016-06-09T00:16:22.284Z,14.59
2016-06-09T00:17:22.320Z,14.51
2016-06-09T00:18:22.228Z,14.48
2016-06-09T00:19:22.716Z,14.6
2016-06-09T00:20:22.422Z,14.58
2016-06-09T00:21:22.472Z,14.6
2016-06-09T00:22:22.506Z,14.44
2016-06-09T00:23:22.542Z,14.35
2016-06-09T00:24:22.419Z,14.41
2016-06-09T00:25:22.609Z,14.29
2016-06-09T00:26:22.644Z,14.23
2016-06-09T00:27:22.679Z,14.2
2016-06-09T00:28:22.713Z,14.07
2016-06-09T00:29:22.746Z,14.15
2016-06-09T00:30:22.797Z,14.11
2016-06-09T00:31:22.816Z,14.07
2016-06-09T00:32:22.866Z,14.05
2016-06-09T00:33:22.900Z,14.12
2016-06-09T00:34:22.918Z,14.12
2016-06-09T00:35:22.969Z,14.04
2016-06-09T00:36:23.003Z,14.11
2016-06-09T00:37:23.037Z,14.11
2016-06-09T00:38:23.072Z,14.12
2016-06-09T00:39:23.121Z,14.25
2016-06-09T00:40:23.140Z,14.25
2016-06-09T00:41:23.175Z,14.28
2016-06-09T00:42:23.225Z,14.22
2016-06-09T00:43:23.258Z,14.29
2016-06-09T00:44:23.293Z,14.3
2016-06-09T00:45:23.311Z,14.18
2016-06-09T00:46:23.362Z,14.2
2016-06-09T00:47:23.396Z,14.25
2016-06-09T00:48:23.430Z,14.29
2016-06-09T00:49:23.308Z,14.22
2016-06-09T00:50:23.514Z,14.28
2016-06-09T00:51:23.534Z,14.17
2016-06-09T00:52:23.567Z,14.17
2016-06-09T00:53:23.618Z,14.23
2016-06-09T00:54:23.637Z,14.23
2016-06-09T00:55:23.670Z,14.05
2016-06-09T00:56:23.704Z,14.08
2016-06-09T00:57:23.755Z,14.17
2016-06-09T00:58:23.789Z,14.22
2016-06-09T00:59:23.824Z,14.15
2016-06-09T01:00:23.858Z,14.11
2016-06-09T01:01:23.892Z,14.26
2016-06-09T01:02:23.926Z,14.29
2016-06-09T01:03:23.976Z,14.26
2016-06-09T01:04:24.479Z,14.15
2016-06-09T01:05:24.030Z,14.08
2016-06-09T01:06:24.063Z,14.05
2016-06-09T01:07:24.113Z,14.07
2016-06-09T01:08:23.991Z,14.25
2016-06-09T01:09:24.167Z,14.17
2016-06-09T01:10:24.217Z,14.12
2016-06-09T01:11:24.251Z,13.99
2016-06-09T01:12:24.285Z,13.89
2016-06-09T01:13:24.320Z,13.89
2016-06-09T01:14:24.370Z,13.89
2016-06-09T01:15:24.388Z,13.79
2016-06-09T01:16:24.438Z,13.71
2016-06-09T01:17:24.457Z,13.86
2016-06-09T01:18:24.820Z,13.74
2016-06-09T01:19:25.119Z,13.83
2016-06-09T01:20:24.591Z,13.72
2016-06-09T01:21:24.454Z,13.89
2016-06-09T01:22:24.645Z,13.95
2016-06-09T01:23:24.678Z,13.7
2016-06-09T01:24:24.713Z,13.78
2016-06-09T01:25:24.747Z,13.81
2016-06-09T01:26:24.782Z,13.81
2016-06-09T01:27:24.815Z,13.85
2016-06-09T01:28:24.850Z,13.9
2016-06-09T01:29:24.885Z,14.04
2016-06-09T01:30:24.919Z,13.99
2016-06-09T01:31:24.968Z,14.07
2016-06-09T01:32:24.987Z,13.99
2016-06-09T01:33:24.882Z,14
2016-06-09T01:34:25.352Z,14.1
2016-06-09T01:35:25.105Z,14.03
2016-06-09T01:36:24.984Z,14.08
2016-06-09T01:37:25.174Z,14.08
2016-06-09T01:38:25.209Z,13.85
2016-06-09T01:39:25.243Z,13.83
2016-06-09T01:40:25.278Z,13.81
2016-06-09T01:41:25.312Z,14.03
2016-06-09T01:42:25.346Z,13.99
2016-06-09T01:43:25.396Z,14.05
2016-06-09T01:44:25.102Z,14.05
2016-06-09T01:45:25.450Z,14.03
2016-06-09T01:46:25.499Z,14.03
2016-06-09T01:47:25.518Z,14.22
2016-06-09T01:48:25.568Z,14.12
2016-06-09T01:49:25.618Z,14.07
2016-06-09T01:50:25.637Z,14.22
2016-06-09T01:51:25.671Z,14.15
2016-06-09T01:52:25.705Z,14.07
2016-06-09T01:53:25.740Z,13.97
2016-06-09T01:54:25.773Z,13.89
2016-06-09T01:55:25.808Z,13.83
2016-06-09T01:56:25.842Z,13.92
2016-06-09T01:57:25.892Z,13.9
2016-06-09T01:58:25.911Z,13.81
2016-06-09T01:59:25.962Z,13.83
2016-06-09T02:00:25.995Z,14
2016-06-09T02:01:26.014Z,14
2016-06-09T02:02:26.064Z,13.87
2016-06-09T02:03:26.833Z,13.67
2016-06-09T02:04:26.242Z,13.75
2016-06-09T02:05:26.167Z,13.77
2016-06-09T02:06:26.201Z,13.7
2016-06-09T02:07:26.236Z,13.78
2016-06-09T02:08:26.270Z,13.74
2016-06-09T02:09:26.304Z,13.83
2016-06-09T02:10:26.338Z,13.79
2016-06-09T02:11:26.388Z,13.83
2016-06-09T02:12:26.251Z,13.81
2016-06-09T02:13:26.458Z,13.79
2016-06-09T02:14:26.491Z,13.74
2016-06-09T02:15:26.511Z,13.85
2016-06-09T02:16:26.545Z,13.9
2016-06-09T02:17:26.579Z,13.96
2016-06-09T02:18:27.097Z,13.9
2016-06-09T02:19:26.507Z,13.81
2016-06-09T02:20:26.698Z,13.68
2016-06-09T02:21:26.731Z,13.68
2016-06-09T02:22:26.766Z,13.71
2016-06-09T02:23:26.785Z,13.72
2016-06-09T02:24:26.835Z,13.74
2016-06-09T02:25:26.869Z,13.68
2016-06-09T02:26:26.903Z,13.75
2016-06-09T02:27:26.937Z,13.9
2016-06-09T02:28:26.973Z,13.85
2016-06-09T02:29:27.007Z,13.74
2016-06-09T02:30:27.041Z,13.72
2016-06-09T02:31:27.075Z,13.72
2016-06-09T02:32:27.110Z,13.85
2016-06-09T02:33:27.144Z,13.74
2016-06-09T02:34:27.866Z,13.75
2016-06-09T02:35:27.228Z,13.93
2016-06-09T02:36:27.262Z,13.86
2016-06-09T02:37:27.296Z,13.9
2016-06-09T02:38:27.316Z,13.81
2016-06-09T02:39:27.365Z,13.77
2016-06-09T02:40:27.399Z,13.81
2016-06-09T02:41:27.434Z,13.85
2016-06-09T02:42:27.469Z,13.79
2016-06-09T02:43:27.502Z,13.71
2016-06-09T02:44:27.537Z,13.68
2016-06-09T02:45:27.570Z,13.75
2016-06-09T02:46:27.621Z,13.74
2016-06-09T02:47:27.640Z,13.75
2016-06-09T02:48:27.689Z,13.89
2016-06-09T02:49:28.037Z,13.97
2016-06-09T02:50:27.618Z,13.86
2016-06-09T02:51:27.777Z,13.9
2016-06-09T02:52:27.671Z,13.9
2016-06-09T02:53:27.861Z,13.85
2016-06-09T02:54:27.880Z,13.96
2016-06-09T02:55:27.931Z,14.04
2016-06-09T02:56:27.948Z,13.99
2016-06-09T02:57:27.842Z,14
2016-06-09T02:58:28.033Z,13.89
2016-06-09T02:59:27.911Z,13.89
2016-06-09T03:00:28.101Z,13.87
2016-06-09T03:01:28.136Z,13.86
2016-06-09T03:02:28.170Z,13.89
2016-06-09T03:03:28.048Z,13.83
2016-06-09T03:04:28.114Z,13.87
2016-06-09T03:05:28.274Z,13.89
2016-06-09T03:06:28.323Z,13.85
2016-06-09T03:07:28.388Z,13.81
2016-06-09T03:08:28.392Z,13.87
2016-06-09T03:09:28.427Z,13.74
2016-06-09T03:10:28.444Z,13.87
2016-06-09T03:11:28.511Z,13.71
2016-06-09T03:12:28.529Z,13.9
2016-06-09T03:13:28.564Z,13.79
2016-06-09T03:14:28.597Z,13.83
2016-06-09T03:15:28.632Z,13.89
2016-06-09T03:16:28.666Z,13.86
2016-06-09T03:17:28.716Z,13.86
2016-06-09T03:18:28.751Z,13.87
2016-06-09T03:19:29.175Z,14.03
2016-06-09T03:20:28.803Z,14.05
2016-06-09T03:21:28.838Z,13.9
2016-06-09T03:22:28.872Z,13.93
2016-06-09T03:23:28.922Z,13.99
2016-06-09T03:24:28.940Z,13.99
2016-06-09T03:25:28.991Z,14.04
2016-06-09T03:26:29.010Z,13.9
2016-06-09T03:27:29.059Z,13.85
2016-06-09T03:28:29.094Z,13.81
2016-06-09T03:29:29.128Z,13.79
2016-06-09T03:30:29.022Z,13.71
2016-06-09T03:31:29.212Z,13.78
2016-06-09T03:32:29.232Z,13.85
2016-06-09T03:33:29.265Z,13.83
2016-06-09T03:34:29.159Z,13.86
2016-06-09T03:35:29.335Z,13.95
2016-06-09T03:36:29.228Z,13.92
2016-06-09T03:37:29.402Z,14
2016-06-09T03:38:29.453Z,14.11
2016-06-09T03:39:29.487Z,13.99
2016-06-09T03:40:29.506Z,14.12
2016-06-09T03:41:29.555Z,14.03
2016-06-09T03:42:29.590Z,13.79
2016-06-09T03:43:29.624Z,13.89
2016-06-09T03:44:29.659Z,13.86
2016-06-09T03:45:29.693Z,13.75
2016-06-09T03:46:29.727Z,13.79
2016-06-09T03:47:29.777Z,13.81
2016-06-09T03:48:29.796Z,13.81
2016-06-09T03:49:29.847Z,13.83
2016-06-09T03:50:29.864Z,13.86
2016-06-09T03:51:29.898Z,13.9
2016-06-09T03:52:29.934Z,13.83
2016-06-09T03:53:29.968Z,13.83
2016-06-09T03:54:29.861Z,13.9
2016-06-09T03:55:30.036Z,14.03
2016-06-09T03:56:30.086Z,13.9
2016-06-09T03:57:30.121Z,13.96
2016-06-09T03:58:30.155Z,13.93
2016-06-09T03:59:30.189Z,13.93
2016-06-09T04:00:30.223Z,13.96
2016-06-09T04:01:30.258Z,13.92
2016-06-09T04:02:30.293Z,13.9
2016-06-09T04:03:30.327Z,14.07
2016-06-09T04:04:31.329Z,14.04
2016-06-09T04:05:30.411Z,14.15
2016-06-09T04:06:30.430Z,14.25
2016-06-09T04:07:30.464Z,14.18
2016-06-09T04:08:30.497Z,14.17
2016-06-09T04:09:30.376Z,14.18
2016-06-09T04:10:30.582Z,14.17
2016-06-09T04:11:30.617Z,14.11
2016-06-09T04:12:30.651Z,14.15
2016-06-09T04:13:30.685Z,14.1
2016-06-09T04:14:30.735Z,14.18
2016-06-09T04:15:30.755Z,14.12
2016-06-09T04:16:30.633Z,14.08
2016-06-09T04:17:30.822Z,14.03
2016-06-09T04:18:30.872Z,14
2016-06-09T04:19:31.532Z,13.96
2016-06-09T04:20:30.770Z,14.08
2016-06-09T04:21:30.959Z,14.1
2016-06-09T04:22:31.010Z,14.2
2016-06-09T04:23:31.060Z,14.18
2016-06-09T04:24:31.079Z,14.17
2016-06-09T04:25:31.113Z,14.32
2016-06-09T04:26:31.147Z,14.26
2016-06-09T04:27:31.181Z,14.26
2016-06-09T04:28:31.216Z,14.23
2016-06-09T04:29:31.251Z,14.29
2016-06-09T04:30:31.285Z,14.36
2016-06-09T04:31:31.319Z,14.29
2016-06-09T04:32:31.368Z,14.29
2016-06-09T04:33:31.388Z,14.41
2016-06-09T04:34:31.438Z,14.43
2016-06-09T04:35:31.143Z,14.5
2016-06-09T04:36:31.350Z,14.43
2016-06-09T04:37:31.540Z,14.47
2016-06-09T04:38:31.575Z,14.55
2016-06-09T04:39:31.609Z,14.59
2016-06-09T04:40:31.643Z,14.59
2016-06-09T04:41:31.677Z,14.6
2016-06-09T04:42:31.712Z,14.59
2016-06-09T04:43:31.747Z,14.65
2016-06-09T04:44:31.780Z,14.58
2016-06-09T04:45:31.814Z,14.58
2016-06-09T04:46:31.865Z,14.66
2016-06-09T04:47:31.900Z,14.62
2016-06-09T04:48:31.933Z,14.63
2016-06-09T04:49:32.437Z,14.65
2016-06-09T04:50:31.862Z,14.62
2016-06-09T04:51:32.052Z,14.62
2016-06-09T04:52:32.071Z,14.59
2016-06-09T04:53:32.121Z,14.59
2016-06-09T04:54:32.155Z,14.54
2016-06-09T04:55:32.189Z,14.59
2016-06-09T04:56:32.223Z,14.62
2016-06-09T04:57:32.259Z,14.54
2016-06-09T04:58:32.293Z,14.45
2016-06-09T04:59:32.342Z,14.53
2016-06-09T05:00:32.377Z,14.48
2016-06-09T05:01:32.411Z,14.54
2016-06-09T05:02:32.430Z,14.51
2016-06-09T05:03:32.495Z,14.45
2016-06-09T05:04:32.607Z,14.53
2016-06-09T05:05:32.548Z,14.53
2016-06-09T05:06:32.583Z,14.53
2016-06-09T05:07:32.617Z,14.58
2016-06-09T05:08:32.652Z,14.66
2016-06-09T05:09:32.685Z,14.58
2016-06-09T05:10:32.735Z,14.53
2016-06-09T05:11:32.770Z,14.45
2016-06-09T05:12:32.805Z,14.59
2016-06-09T05:13:32.838Z,14.63
2016-06-09T05:14:32.873Z,14.63
2016-06-09T05:15:32.907Z,14.65
2016-06-09T05:16:32.957Z,14.58
2016-06-09T05:17:32.976Z,14.65
2016-06-09T05:18:33.041Z,14.59
2016-06-09T05:19:33.060Z,14.55
2016-06-09T05:20:34.204Z,14.51
2016-06-09T05:21:33.129Z,14.53
2016-06-09T05:22:33.163Z,14.58
2016-06-09T05:23:33.197Z,14.44
2016-06-09T05:24:33.231Z,14.54
2016-06-09T05:25:33.267Z,14.43
2016-06-09T05:26:33.301Z,14.48
2016-06-09T05:27:33.335Z,14.45
2016-06-09T05:28:33.368Z,14.37
2016-06-09T05:29:33.247Z,14.44
2016-06-09T05:30:33.453Z,14.43
2016-06-09T05:31:33.488Z,14.5
2016-06-09T05:32:33.522Z,14.59
2016-06-09T05:33:33.400Z,14.47
2016-06-09T05:34:33.450Z,14.43
2016-06-09T05:35:33.641Z,14.36
2016-06-09T05:36:33.675Z,14.3
2016-06-09T05:37:33.709Z,14.37
2016-06-09T05:38:33.743Z,14.33
2016-06-09T05:39:33.778Z,14.32
2016-06-09T05:40:33.813Z,14.17
2016-06-09T05:41:33.847Z,14.18
2016-06-09T05:42:33.912Z,14.4
2016-06-09T05:43:33.758Z,14.4
2016-06-09T05:44:33.809Z,14.33
2016-06-09T05:45:33.983Z,14.28
2016-06-09T05:46:34.018Z,14.44
2016-06-09T05:47:34.068Z,14.37
2016-06-09T05:48:34.102Z,14.5
2016-06-09T05:49:34.511Z,14.37
2016-06-09T05:50:34.811Z,14.28
2016-06-09T05:51:34.205Z,14.43
2016-06-09T05:52:34.255Z,14.47
2016-06-09T05:53:34.273Z,14.44
2016-06-09T05:54:34.324Z,14.48
2016-06-09T05:55:34.374Z,14.65
2016-06-09T05:56:34.392Z,14.66
2016-06-09T05:57:34.427Z,14.65
2016-06-09T05:58:34.461Z,14.59
2016-06-09T05:59:34.496Z,14.47
2016-06-09T06:00:34.530Z,14.45
2016-06-09T06:01:34.565Z,14.45
2016-06-09T06:02:34.598Z,14.5
2016-06-09T06:03:34.634Z,14.47
2016-06-09T06:04:34.901Z,14.45
2016-06-09T06:05:34.717Z,14.37
2016-06-09T06:06:34.751Z,14.4
2016-06-09T06:07:34.785Z,14.47
2016-06-09T06:08:34.835Z,14.54
2016-06-09T06:09:34.855Z,14.53
2016-06-09T06:10:34.889Z,14.55
2016-06-09T06:11:34.923Z,14.54
2016-06-09T06:12:34.957Z,14.54
2016-06-09T06:13:34.992Z,14.48
2016-06-09T06:14:35.042Z,14.53
2016-06-09T06:15:35.076Z,14.54
2016-06-09T06:16:35.094Z,14.43
2016-06-09T06:17:35.144Z,14.48
2016-06-09T06:18:35.180Z,14.4
2016-06-09T06:19:35.229Z,14.55
2016-06-09T06:20:35.107Z,14.59
2016-06-09T06:21:35.142Z,14.54
2016-06-09T06:22:35.332Z,14.58
2016-06-09T06:23:36.054Z,14.55
2016-06-09T06:24:35.244Z,14.59
2016-06-09T06:25:35.435Z,14.6
2016-06-09T06:26:35.313Z,14.59
2016-06-09T06:27:35.503Z,14.59
2016-06-09T06:28:35.631Z,14.65
2016-06-09T06:29:35.573Z,14.73
2016-06-09T06:30:35.450Z,14.59
2016-06-09T06:31:35.656Z,14.54
2016-06-09T06:32:35.690Z,14.47
2016-06-09T06:33:37.601Z,14.62
2016-06-09T06:34:35.853Z,14.73
2016-06-09T06:35:36.091Z,14.81
2016-06-09T06:36:35.844Z,14.86
2016-06-09T06:37:35.863Z,14.82
2016-06-09T06:38:35.897Z,15.04
2016-06-09T06:39:35.962Z,15.44
2016-06-09T06:40:35.965Z,15.7
2016-06-09T06:41:36.015Z,15.86
2016-06-09T06:42:36.049Z,16.09
2016-06-09T06:43:36.835Z,16.01
2016-06-09T06:44:36.118Z,16.16
2016-06-09T06:45:36.168Z,15.95
2016-06-09T06:46:36.186Z,15.83
2016-06-09T06:47:36.237Z,15.88
2016-06-09T06:48:36.287Z,15.83
2016-06-09T06:49:36.165Z,15.68
2016-06-09T06:50:36.371Z,15.64
2016-06-09T06:51:36.373Z,15.42
2016-06-09T06:52:36.424Z,15.37
2016-06-09T06:53:37.458Z,15.46
2016-06-09T06:54:36.493Z,15.35
2016-06-09T06:55:36.527Z,15.33
2016-06-09T06:56:36.561Z,15.27
2016-06-09T06:57:36.611Z,15.21
2016-06-09T06:58:37.740Z,15.09
2016-06-09T06:59:36.681Z,15.11
2016-06-09T07:00:36.714Z,15.19
2016-06-09T07:01:36.748Z,15.19
2016-06-09T07:02:36.799Z,15.22
2016-06-09T07:03:36.818Z,15.24
2016-06-09T07:04:36.866Z,15
2016-06-09T07:05:36.761Z,15.06
2016-06-09T07:06:36.936Z,15.07
2016-06-09T07:07:36.970Z,14.99
2016-06-09T07:08:39.286Z,15.11
2016-06-09T07:09:37.039Z,15.06
2016-06-09T07:10:37.105Z,15.15
2016-06-09T07:11:37.123Z,15.17
2016-06-09T07:12:37.157Z,15.17
2016-06-09T07:13:37.191Z,15.07
2016-06-09T07:14:37.086Z,15.04
2016-06-09T07:15:37.260Z,15.06
2016-06-09T07:16:37.311Z,15.04
2016-06-09T07:17:37.328Z,15.03
2016-06-09T07:18:37.223Z,15.19
2016-06-09T07:19:37.429Z,15.1
2016-06-09T07:20:37.698Z,15.22
2016-06-09T07:21:37.529Z,15.1
2016-06-09T07:22:37.532Z,15.02
2016-06-09T07:23:37.410Z,14.88
2016-06-09T07:24:37.600Z,14.81
2016-06-09T07:25:37.636Z,14.82
2016-06-09T07:26:37.670Z,14.91
2016-06-09T07:27:37.704Z,14.88
2016-06-09T07:28:38.394Z,14.99
2016-06-09T07:29:37.773Z,15.04
2016-06-09T07:30:37.807Z,15.1
2016-06-09T07:31:37.857Z,15.1
2016-06-09T07:32:37.891Z,15.09
2016-06-09T07:33:37.924Z,14.82
2016-06-09T07:34:37.819Z,14.72
2016-06-09T07:35:38.275Z,14.92
2016-06-09T07:36:38.044Z,14.86
2016-06-09T07:37:38.078Z,14.91
2016-06-09T07:38:37.956Z,14.92
2016-06-09T07:39:38.146Z,14.7
2016-06-09T07:40:38.181Z,14.72
2016-06-09T07:41:38.230Z,15
2016-06-09T07:42:38.266Z,14.99
2016-06-09T07:43:39.018Z,15
2016-06-09T07:44:38.334Z,15.06
2016-06-09T07:45:38.368Z,15.07
2016-06-09T07:46:38.403Z,15.17
2016-06-09T07:47:38.453Z,15.29
2016-06-09T07:48:38.190Z,15.29
2016-06-09T07:49:38.505Z,15.22
2016-06-09T07:50:39.571Z,15.04
2016-06-09T07:51:38.591Z,15.22
2016-06-09T07:52:38.624Z,15.31
2016-06-09T07:53:38.517Z,15.52
2016-06-09T07:54:38.692Z,15.65
2016-06-09T07:55:38.728Z,15.73
2016-06-09T07:56:38.762Z,15.57
2016-06-09T07:57:38.796Z,15.7
2016-06-09T07:58:38.845Z,15.79
2016-06-09T07:59:38.896Z,15.82
2016-06-09T08:00:38.930Z,15.82
2016-06-09T08:01:38.964Z,15.77
2016-06-09T08:02:38.999Z,15.9
2016-06-09T08:03:41.252Z,15.94
2016-06-09T08:04:39.067Z,15.75
2016-06-09T08:05:38.993Z,15.83
2016-06-09T08:06:39.151Z,15.72
2016-06-09T08:07:39.171Z,15.7
2016-06-09T08:08:41.674Z,15.77
2016-06-09T08:09:39.270Z,15.72
2016-06-09T08:10:39.305Z,15.84
2016-06-09T08:11:39.339Z,15.92
2016-06-09T08:12:39.357Z,15.9
2016-06-09T08:13:40.814Z,16.05
2016-06-09T08:14:39.441Z,16.31
2016-06-09T08:15:39.476Z,16.38
2016-06-09T08:16:39.510Z,16.54
2016-06-09T08:17:39.560Z,16.58
2016-06-09T08:18:39.626Z,16.54
2016-06-09T08:19:39.630Z,16.68
2016-06-09T08:20:39.741Z,16.72
2016-06-09T08:21:39.698Z,16.69
2016-06-09T08:22:39.731Z,16.51
2016-06-09T08:23:39.767Z,16.56
2016-06-09T08:24:39.819Z,16.43
2016-06-09T08:25:39.895Z,16.49
2016-06-09T08:26:39.972Z,16.6
2016-06-09T08:27:40.048Z,16.56
2016-06-09T08:28:40.142Z,16.46
2016-06-09T08:29:40.217Z,16.41
2016-06-09T08:30:40.126Z,16.17
2016-06-09T08:31:40.333Z,16.12
2016-06-09T08:32:40.366Z,16.04
2016-06-09T08:33:40.431Z,16.04
2016-06-09T08:34:40.324Z,16.02
2016-06-09T08:35:41.146Z,15.97
2016-06-09T08:36:40.561Z,16.01
2016-06-09T08:37:40.616Z,15.83
2016-06-09T08:38:40.499Z,15.68
2016-06-09T08:39:40.710Z,15.67
2016-06-09T08:40:40.730Z,15.65
2016-06-09T08:41:40.783Z,15.7
2016-06-09T08:42:40.820Z,15.73
2016-06-09T08:43:40.918Z,15.73
2016-06-09T08:44:40.907Z,15.88
2016-06-09T08:45:40.942Z,15.9
2016-06-09T08:46:40.977Z,15.72
2016-06-09T08:47:41.012Z,15.77
2016-06-09T08:48:41.048Z,15.84
2016-06-09T08:49:41.083Z,15.86
2016-06-09T08:50:41.773Z,15.83
2016-06-09T08:51:41.167Z,15.83
2016-06-09T08:52:41.218Z,15.75
2016-06-09T08:53:41.238Z,15.82
2016-06-09T08:54:41.272Z,15.9
2016-06-09T08:55:41.323Z,15.82
2016-06-09T08:56:41.356Z,15.75
2016-06-09T08:57:41.391Z,15.82
2016-06-09T08:58:43.191Z,15.83
2016-06-09T08:59:41.474Z,15.79
2016-06-09T09:00:41.509Z,15.65
2016-06-09T09:01:41.543Z,15.7
2016-06-09T09:02:41.577Z,15.68
2016-06-09T09:03:42.205Z,15.77
2016-06-09T09:04:41.678Z,15.82
2016-06-09T09:05:41.696Z,15.79
2016-06-09T09:06:41.731Z,15.84
2016-06-09T09:07:41.781Z,15.86
2016-06-09T09:08:41.799Z,15.88
2016-06-09T09:09:41.849Z,15.98
2016-06-09T09:10:41.884Z,15.77
2016-06-09T09:11:41.918Z,15.73
2016-06-09T09:12:41.953Z,15.68
2016-06-09T09:13:41.987Z,15.65
2016-06-09T09:14:42.037Z,15.62
2016-06-09T09:15:42.055Z,15.68
2016-06-09T09:16:42.105Z,15.7
2016-06-09T09:17:42.124Z,15.62
2016-06-09T09:18:43.705Z,15.57
2016-06-09T09:19:42.208Z,15.59
2016-06-09T09:20:42.102Z,15.62
2016-06-09T09:21:42.292Z,15.72
2016-06-09T09:22:42.327Z,15.67
2016-06-09T09:23:42.361Z,15.8
2016-06-09T09:24:42.395Z,15.84
2016-06-09T09:25:42.429Z,15.86
2016-06-09T09:26:42.479Z,15.9
2016-06-09T09:27:42.499Z,15.95
2016-06-09T09:28:42.548Z,16.01
2016-06-09T09:29:42.598Z,16.05
2016-06-09T09:30:42.617Z,16.05
2016-06-09T09:31:42.666Z,16.02
2016-06-09T09:32:42.700Z,15.98
2016-06-09T09:33:42.736Z,15.79
2016-06-09T09:34:42.770Z,15.8
2016-06-09T09:35:43.945Z,15.73
2016-06-09T09:36:42.838Z,15.8
2016-06-09T09:37:42.889Z,15.7
2016-06-09T09:38:42.922Z,15.7
2016-06-09T09:39:42.957Z,15.79
2016-06-09T09:40:42.991Z,15.91
2016-06-09T09:41:43.026Z,15.86
2016-06-09T09:42:43.091Z,16.08
2016-06-09T09:43:43.110Z,16
2016-06-09T09:44:43.145Z,15.98
2016-06-09T09:45:43.179Z,15.94
2016-06-09T09:46:43.213Z,16.01
2016-06-09T09:47:43.246Z,16.05
2016-06-09T09:48:43.297Z,15.88
2016-06-09T09:49:43.331Z,15.83
2016-06-09T09:50:43.367Z,16.01
2016-06-09T09:51:43.401Z,16.01
2016-06-09T09:52:43.450Z,15.97
2016-06-09T09:53:43.312Z,15.9
2016-06-09T09:54:43.504Z,15.94
2016-06-09T09:55:43.554Z,16.02
2016-06-09T09:56:43.602Z,16.1
2016-06-09T09:57:43.622Z,16.13
2016-06-09T09:58:43.671Z,16.36
2016-06-09T09:59:43.706Z,16.31
2016-06-09T10:00:43.584Z,16.04
2016-06-09T10:01:43.775Z,15.95
2016-06-09T10:02:43.809Z,15.94
2016-06-09T10:03:43.843Z,15.97
2016-06-09T10:04:43.893Z,16.08
2016-06-09T10:05:44.412Z,16.13
2016-06-09T10:06:43.993Z,16.02
2016-06-09T10:07:43.996Z,16.08
2016-06-09T10:08:44.031Z,16.1
2016-06-09T10:09:44.064Z,16.12
2016-06-09T10:10:44.115Z,16.2
2016-06-09T10:11:44.134Z,16.29
2016-06-09T10:12:44.184Z,16.29
2016-06-09T10:13:44.218Z,16.33
2016-06-09T10:14:44.252Z,16.31
2016-06-09T10:15:44.318Z,16.33
2016-06-09T10:16:44.336Z,16.29
2016-06-09T10:17:44.386Z,16.39
2016-06-09T10:18:44.405Z,16.43
2016-06-09T10:19:44.470Z,16.53
2016-06-09T10:20:44.709Z,16.54
2016-06-09T10:21:44.961Z,16.41
2016-06-09T10:22:44.574Z,16.36
2016-06-09T10:23:44.593Z,16.43
2016-06-09T10:24:44.642Z,16.32
2016-06-09T10:25:44.660Z,16.21
2016-06-09T10:26:44.711Z,16.26
2016-06-09T10:27:44.745Z,16.24
2016-06-09T10:28:44.780Z,16.23
2016-06-09T10:29:44.829Z,16.35
2016-06-09T10:30:44.865Z,16.46
2016-06-09T10:31:44.898Z,16.35
2016-06-09T10:32:44.932Z,16.26
2016-06-09T10:33:44.966Z,16.2
2016-06-09T10:34:45.001Z,16.35
2016-06-09T10:35:45.427Z,16.17
2016-06-09T10:36:45.100Z,16.38
2016-06-09T10:37:45.119Z,16.47
2016-06-09T10:38:45.169Z,16.39
2016-06-09T10:39:45.204Z,16.53
2016-06-09T10:40:45.254Z,16.42
2016-06-09T10:41:45.273Z,16.39
2016-06-09T10:42:45.323Z,16.35
2016-06-09T10:43:45.341Z,16.16
2016-06-09T10:44:45.391Z,15.98
2016-06-09T10:45:45.270Z,16.08
2016-06-09T10:46:45.460Z,16.23
2016-06-09T10:47:45.494Z,16.39
2016-06-09T10:48:45.529Z,16.41
2016-06-09T10:49:45.578Z,16.41
2016-06-09T10:50:45.613Z,16.56
2016-06-09T10:51:45.647Z,16.47
2016-06-09T10:52:45.682Z,16.47
2016-06-09T10:53:45.575Z,16.6
2016-06-09T10:54:45.765Z,16.56
2016-06-09T10:55:45.800Z,16.53
2016-06-09T10:56:45.834Z,16.47
2016-06-09T10:57:45.884Z,16.54
2016-06-09T10:58:45.918Z,16.56
2016-06-09T10:59:45.954Z,16.58
2016-06-09T11:00:45.987Z,16.6
2016-06-09T11:02:03.850Z,16.68
2016-06-09T11:02:46.071Z,16.71
2016-06-09T11:03:46.091Z,16.51
2016-06-09T11:04:46.141Z,16.56
2016-06-09T11:05:46.018Z,16.74
2016-06-09T11:06:46.209Z,16.6
2016-06-09T11:07:46.087Z,16.58
2016-06-09T11:08:46.293Z,16.54
2016-06-09T11:09:46.327Z,16.57
2016-06-09T11:10:46.393Z,16.6
2016-06-09T11:11:46.396Z,16.65
2016-06-09T11:12:46.446Z,16.71
2016-06-09T11:13:46.183Z,16.57
2016-06-09T11:14:46.358Z,16.58
2016-06-09T11:15:46.549Z,16.68
2016-06-09T11:16:46.583Z,16.6
2016-06-09T11:17:46.633Z,16.49
2016-06-09T11:18:46.684Z,16.42
2016-06-09T11:19:46.701Z,16.5
2016-06-09T11:20:46.580Z,16.57
2016-06-09T11:21:47.271Z,16.53
2016-06-09T11:22:46.821Z,16.51
2016-06-09T11:23:46.839Z,16.66
2016-06-09T11:24:46.889Z,16.71
2016-06-09T11:25:47.126Z,16.71
2016-06-09T11:26:46.989Z,16.64
2016-06-09T11:27:46.993Z,16.68
2016-06-09T11:28:47.042Z,16.75
2016-06-09T11:29:46.921Z,16.76
2016-06-09T11:30:47.110Z,16.91
2016-06-09T11:31:47.144Z,17.01
2016-06-09T11:32:47.195Z,16.96
2016-06-09T11:33:47.230Z,17.02
2016-06-09T11:34:47.278Z,16.97
2016-06-09T11:35:48.376Z,17.02
2016-06-09T11:36:48.176Z,17.11
2016-06-09T11:37:47.398Z,17.08
2016-06-09T11:38:47.416Z,17.01
2016-06-09T11:39:47.451Z,16.96
2016-06-09T11:40:47.486Z,16.9
2016-06-09T11:41:47.535Z,16.65
2016-06-09T11:42:47.570Z,16.53
2016-06-09T11:43:47.604Z,16.66
2016-06-09T11:44:47.670Z,16.79
2016-06-09T11:45:47.704Z,16.74
2016-06-09T11:46:47.723Z,16.86
2016-06-09T11:47:47.773Z,16.81
2016-06-09T11:48:47.806Z,16.83
2016-06-09T11:49:47.841Z,16.83
2016-06-09T11:50:47.719Z,16.94
2016-06-09T11:51:49.003Z,16.9
2016-06-09T11:52:47.959Z,16.81
2016-06-09T11:53:47.995Z,16.86
2016-06-09T11:54:48.028Z,16.76
2016-06-09T11:55:48.063Z,16.76
2016-06-09T11:56:48.096Z,16.9
2016-06-09T11:57:48.147Z,16.83
2016-06-09T11:58:48.182Z,16.76
2016-06-09T11:59:48.215Z,16.79
2016-06-09T12:00:48.250Z,16.94
2016-06-09T12:01:48.284Z,16.91
2016-06-09T12:02:48.334Z,16.83
2016-06-09T12:03:48.368Z,16.78
2016-06-09T12:04:48.403Z,16.81
2016-06-09T12:05:48.453Z,16.81
2016-06-09T12:06:49.549Z,16.76
2016-06-09T12:07:48.521Z,16.87
2016-06-09T12:08:48.555Z,16.89
2016-06-09T12:09:48.605Z,16.97
2016-06-09T12:10:48.640Z,16.99
2016-06-09T12:11:48.674Z,16.86
2016-06-09T12:12:48.708Z,16.89
2016-06-09T12:13:48.758Z,16.76
2016-06-09T12:14:48.793Z,16.83
2016-06-09T12:15:48.671Z,16.97
2016-06-09T12:16:48.862Z,16.97
2016-06-09T12:17:48.911Z,17.09
2016-06-09T12:18:48.946Z,17.15
2016-06-09T12:19:48.980Z,17.08
2016-06-09T12:20:50.499Z,17.11
2016-06-09T12:21:49.580Z,17.22
2016-06-09T12:22:49.098Z,17.27
2016-06-09T12:23:49.134Z,17.3
2016-06-09T12:24:49.182Z,17.3
2016-06-09T12:25:49.202Z,17.23
2016-06-09T12:26:49.236Z,17.2
2016-06-09T12:27:49.285Z,17.29
2016-06-09T12:28:49.320Z,17.41
2016-06-09T12:29:49.355Z,17.52
2016-06-09T12:30:49.405Z,17.51
2016-06-09T12:31:49.423Z,17.56
2016-06-09T12:32:49.473Z,17.26
2016-06-09T12:33:49.507Z,17.31
2016-06-09T12:34:49.557Z,17.36
2016-06-09T12:35:49.592Z,17.38
2016-06-09T12:36:50.220Z,17.68
2016-06-09T12:37:49.661Z,17.64
2016-06-09T12:38:49.710Z,17.67
2016-06-09T12:39:49.760Z,17.74
2016-06-09T12:40:49.779Z,17.65
2016-06-09T12:41:49.829Z,17.59
2016-06-09T12:42:49.863Z,17.67
2016-06-09T12:43:49.898Z,17.79
2016-06-09T12:44:49.932Z,18.13
2016-06-09T12:45:49.966Z,18.35
2016-06-09T12:46:50.016Z,18.28
2016-06-09T12:47:50.050Z,18.33
2016-06-09T12:48:50.085Z,18.18
2016-06-09T12:49:50.135Z,18.23
2016-06-09T12:50:50.154Z,18.08
2016-06-09T12:51:50.875Z,18.11
2016-06-09T12:52:50.253Z,18.22
2016-06-09T12:53:50.287Z,18.19
2016-06-09T12:54:50.322Z,18.31
2016-06-09T12:55:50.371Z,18.26
2016-06-09T12:56:50.406Z,17.9